sensor_id;sensor_type;location;lat;lon;timestamp;P1;durP1;ratioP1;P2;durP2;ratioP2
49340;SDS011;35209;51.050;13.678;2023-01-24T00:04:30;141.68;;;53.72;;
49340;SDS011;35209;51.050;13.678;2023-01-24T00:09:31;141.93;;;53.35;;
49340;SDS011;35209;51.050;13.678;2023-01-24T00:14:33;142.38;;;53.53;;
49340;SDS011;35209;51.050;13.678;2023-01-24T00:19:35;138.30;;;51.95;;
49340;SDS011;35209;51.050;13.678;2023-01-24T00:24:37;147.20;;;53.78;;
49340;SDS011;35209;51.050;13.678;2023-01-24T00:29:38;143.43;;;53.38;;
49340;SDS011;35209;51.050;13.678;2023-01-24T00:34:40;153.73;;;54.25;;
49340;SDS011;35209;51.050;13.678;2023-01-24T00:39:42;153.40;;;57.17;;
49340;SDS011;35209;51.050;13.678;2023-01-24T00:44:46;155.70;;;56.05;;
49340;SDS011;35209;51.050;13.678;2023-01-24T00:49:49;160.82;;;56.22;;
49340;SDS011;35209;51.050;13.678;2023-01-24T00:54:51;145.00;;;56.00;;
49340;SDS011;35209;51.050;13.678;2023-01-24T00:59:52;150.68;;;57.55;;
49340;SDS011;35209;51.050;13.678;2023-01-24T01:04:54;147.40;;;54.80;;
49340;SDS011;35209;51.050;13.678;2023-01-24T01:09:55;145.52;;;55.53;;
49340;SDS011;35209;51.050;13.678;2023-01-24T01:14:57;147.65;;;56.20;;
49340;SDS011;35209;51.050;13.678;2023-01-24T01:19:59;142.73;;;53.25;;
49340;SDS011;35209;51.050;13.678;2023-01-24T01:25:00;138.60;;;52.95;;
49340;SDS011;35209;51.050;13.678;2023-01-24T01:30:02;142.48;;;53.38;;
49340;SDS011;35209;51.050;13.678;2023-01-24T01:35:04;142.52;;;54.08;;
49340;SDS011;35209;51.050;13.678;2023-01-24T01:40:07;163.95;;;56.28;;
49340;SDS011;35209;51.050;13.678;2023-01-24T01:50:36;167.40;;;57.75;;
49340;SDS011;35209;51.050;13.678;2023-01-24T01:55:43;161.25;;;57.55;;
49340;SDS011;35209;51.050;13.678;2023-01-24T02:00:50;147.50;;;55.30;;
49340;SDS011;35209;51.050;13.678;2023-01-24T02:05:52;154.07;;;54.60;;
49340;SDS011;35209;51.050;13.678;2023-01-24T02:10:55;139.52;;;54.10;;
49340;SDS011;35209;51.050;13.678;2023-01-24T02:16:19;142.30;;;55.47;;
49340;SDS011;35209;51.050;13.678;2023-01-24T02:21:20;140.90;;;53.30;;
49340;SDS011;35209;51.050;13.678;2023-01-24T02:26:23;145.30;;;54.70;;
49340;SDS011;35209;51.050;13.678;2023-01-24T02:31:27;148.35;;;56.15;;
49340;SDS011;35209;51.050;13.678;2023-01-24T02:41:38;140.75;;;54.28;;
49340;SDS011;35209;51.050;13.678;2023-01-24T02:46:46;146.85;;;55.55;;
49340;SDS011;35209;51.050;13.678;2023-01-24T02:51:48;144.38;;;55.15;;
49340;SDS011;35209;51.050;13.678;2023-01-24T02:57:08;148.27;;;53.60;;
49340;SDS011;35209;51.050;13.678;2023-01-24T03:02:29;159.40;;;54.15;;
49340;SDS011;35209;51.050;13.678;2023-01-24T03:07:31;160.63;;;55.28;;
49340;SDS011;35209;51.050;13.678;2023-01-24T03:12:46;165.15;;;55.35;;
49340;SDS011;35209;51.050;13.678;2023-01-24T03:18:06;146.82;;;53.08;;
49340;SDS011;35209;51.050;13.678;2023-01-24T03:23:27;154.20;;;54.15;;
49340;SDS011;35209;51.050;13.678;2023-01-24T03:28:47;148.48;;;54.78;;
49340;SDS011;35209;51.050;13.678;2023-01-24T03:34:09;162.38;;;53.95;;
49340;SDS011;35209;51.050;13.678;2023-01-24T03:39:30;159.35;;;52.67;;
49340;SDS011;35209;51.050;13.678;2023-01-24T03:44:50;151.60;;;53.10;;
49340;SDS011;35209;51.050;13.678;2023-01-24T03:49:52;141.73;;;53.22;;
49340;SDS011;35209;51.050;13.678;2023-01-24T03:55:12;145.82;;;51.08;;
49340;SDS011;35209;51.050;13.678;2023-01-24T04:00:16;131.13;;;48.58;;
49340;SDS011;35209;51.050;13.678;2023-01-24T04:05:26;134.02;;;47.80;;
49340;SDS011;35209;51.050;13.678;2023-01-24T04:10:28;130.40;;;48.60;;
49340;SDS011;35209;51.050;13.678;2023-01-24T04:15:31;147.27;;;49.58;;
49340;SDS011;35209;51.050;13.678;2023-01-24T04:21:00;145.00;;;51.42;;
49340;SDS011;35209;51.050;13.678;2023-01-24T04:26:02;138.43;;;49.33;;
49340;SDS011;35209;51.050;13.678;2023-01-24T04:31:06;142.82;;;51.05;;
49340;SDS011;35209;51.050;13.678;2023-01-24T04:36:34;166.60;;;54.60;;
49340;SDS011;35209;51.050;13.678;2023-01-24T04:41:37;160.68;;;52.95;;
49340;SDS011;35209;51.050;13.678;2023-01-24T04:46:39;149.73;;;50.28;;
49340;SDS011;35209;51.050;13.678;2023-01-24T04:51:40;151.50;;;50.97;;
49340;SDS011;35209;51.050;13.678;2023-01-24T04:56:49;142.48;;;50.08;;
49340;SDS011;35209;51.050;13.678;2023-01-24T05:01:51;127.50;;;46.13;;
49340;SDS011;35209;51.050;13.678;2023-01-24T05:07:15;132.48;;;48.70;;
49340;SDS011;35209;51.050;13.678;2023-01-24T05:17:24;122.70;;;45.95;;
49340;SDS011;35209;51.050;13.678;2023-01-24T05:22:29;117.57;;;44.17;;
49340;SDS011;35209;51.050;13.678;2023-01-24T05:27:30;112.65;;;46.58;;
49340;SDS011;35209;51.050;13.678;2023-01-24T05:32:36;117.57;;;45.63;;
49340;SDS011;35209;51.050;13.678;2023-01-24T05:37:38;116.35;;;46.30;;
49340;SDS011;35209;51.050;13.678;2023-01-24T05:42:43;124.25;;;45.17;;
49340;SDS011;35209;51.050;13.678;2023-01-24T05:47:46;122.82;;;46.55;;
49340;SDS011;35209;51.050;13.678;2023-01-24T05:52:50;128.18;;;46.13;;
49340;SDS011;35209;51.050;13.678;2023-01-24T05:57:52;114.13;;;43.97;;
49340;SDS011;35209;51.050;13.678;2023-01-24T06:03:26;118.95;;;52.33;;
49340;SDS011;35209;51.050;13.678;2023-01-24T06:08:29;126.13;;;50.00;;
49340;SDS011;35209;51.050;13.678;2023-01-24T06:13:32;117.13;;;45.20;;
49340;SDS011;35209;51.050;13.678;2023-01-24T06:18:35;117.90;;;44.67;;
49340;SDS011;35209;51.050;13.678;2023-01-24T06:23:37;114.45;;;43.92;;
49340;SDS011;35209;51.050;13.678;2023-01-24T06:28:39;120.63;;;45.85;;
49340;SDS011;35209;51.050;13.678;2023-01-24T06:33:45;132.90;;;49.53;;
49340;SDS011;35209;51.050;13.678;2023-01-24T06:38:57;115.43;;;45.15;;
49340;SDS011;35209;51.050;13.678;2023-01-24T06:43:59;119.82;;;44.83;;
49340;SDS011;35209;51.050;13.678;2023-01-24T06:49:01;105.80;;;44.47;;
49340;SDS011;35209;51.050;13.678;2023-01-24T06:54:03;110.18;;;44.08;;
49340;SDS011;35209;51.050;13.678;2023-01-24T06:59:05;105.55;;;41.33;;
49340;SDS011;35209;51.050;13.678;2023-01-24T07:04:07;96.93;;;41.15;;
49340;SDS011;35209;51.050;13.678;2023-01-24T07:09:08;106.78;;;43.45;;
49340;SDS011;35209;51.050;13.678;2023-01-24T07:14:10;99.10;;;41.45;;
49340;SDS011;35209;51.050;13.678;2023-01-24T07:19:15;107.20;;;42.95;;
49340;SDS011;35209;51.050;13.678;2023-01-24T07:24:20;101.90;;;40.60;;
49340;SDS011;35209;51.050;13.678;2023-01-24T07:29:24;103.40;;;42.10;;
49340;SDS011;35209;51.050;13.678;2023-01-24T07:34:26;104.82;;;41.38;;
49340;SDS011;35209;51.050;13.678;2023-01-24T07:39:27;110.18;;;42.65;;
49340;SDS011;35209;51.050;13.678;2023-01-24T07:44:31;104.80;;;40.63;;
49340;SDS011;35209;51.050;13.678;2023-01-24T07:49:33;98.30;;;39.10;;
49340;SDS011;35209;51.050;13.678;2023-01-24T07:54:35;104.88;;;41.10;;
49340;SDS011;35209;51.050;13.678;2023-01-24T07:59:36;110.28;;;42.78;;
49340;SDS011;35209;51.050;13.678;2023-01-24T08:04:39;105.18;;;41.53;;
49340;SDS011;35209;51.050;13.678;2023-01-24T08:09:41;107.00;;;42.70;;
49340;SDS011;35209;51.050;13.678;2023-01-24T08:14:43;94.05;;;39.40;;
49340;SDS011;35209;51.050;13.678;2023-01-24T08:19:45;105.80;;;43.35;;
49340;SDS011;35209;51.050;13.678;2023-01-24T08:24:57;96.85;;;39.47;;
49340;SDS011;35209;51.050;13.678;2023-01-24T08:29:59;93.68;;;38.45;;
49340;SDS011;35209;51.050;13.678;2023-01-24T08:35:00;91.10;;;39.80;;
49340;SDS011;35209;51.050;13.678;2023-01-24T08:40:03;108.18;;;41.63;;
49340;SDS011;35209;51.050;13.678;2023-01-24T08:45:06;91.93;;;39.13;;
49340;SDS011;35209;51.050;13.678;2023-01-24T08:50:08;100.88;;;39.22;;
49340;SDS011;35209;51.050;13.678;2023-01-24T08:55:10;101.68;;;40.13;;
49340;SDS011;35209;51.050;13.678;2023-01-24T09:00:14;86.75;;;37.83;;
49340;SDS011;35209;51.050;13.678;2023-01-24T09:05:16;102.80;;;41.10;;
49340;SDS011;35209;51.050;13.678;2023-01-24T09:10:19;103.28;;;40.95;;
49340;SDS011;35209;51.050;13.678;2023-01-24T09:15:21;100.68;;;40.03;;
49340;SDS011;35209;51.050;13.678;2023-01-24T09:20:23;109.55;;;42.53;;
49340;SDS011;35209;51.050;13.678;2023-01-24T09:25:25;114.28;;;43.10;;
49340;SDS011;35209;51.050;13.678;2023-01-24T09:30:26;117.82;;;43.58;;
49340;SDS011;35209;51.050;13.678;2023-01-24T09:35:29;116.10;;;43.13;;
49340;SDS011;35209;51.050;13.678;2023-01-24T09:40:44;115.88;;;43.88;;
49340;SDS011;35209;51.050;13.678;2023-01-24T09:45:56;110.78;;;43.85;;
49340;SDS011;35209;51.050;13.678;2023-01-24T09:51:10;103.95;;;41.15;;
49340;SDS011;35209;51.050;13.678;2023-01-24T09:56:36;116.28;;;42.42;;
49340;SDS011;35209;51.050;13.678;2023-01-24T10:01:40;110.72;;;43.95;;
49340;SDS011;35209;51.050;13.678;2023-01-24T10:07:32;127.90;;;47.67;;
49340;SDS011;35209;51.050;13.678;2023-01-24T10:12:51;129.30;;;46.35;;
49340;SDS011;35209;51.050;13.678;2023-01-24T10:23:08;116.57;;;43.88;;
49340;SDS011;35209;51.050;13.678;2023-01-24T10:28:59;122.72;;;42.40;;
49340;SDS011;35209;51.050;13.678;2023-01-24T10:33:47;112.72;;;44.75;;
49340;SDS011;35209;51.050;13.678;2023-01-24T10:38:50;120.75;;;45.45;;
49340;SDS011;35209;51.050;13.678;2023-01-24T10:43:53;122.70;;;44.33;;
49340;SDS011;35209;51.050;13.678;2023-01-24T10:49:07;106.07;;;43.17;;
49340;SDS011;35209;51.050;13.678;2023-01-24T10:54:18;112.85;;;44.47;;
49340;SDS011;35209;51.050;13.678;2023-01-24T10:59:24;104.07;;;42.03;;
49340;SDS011;35209;51.050;13.678;2023-01-24T11:04:27;111.15;;;41.45;;
49340;SDS011;35209;51.050;13.678;2023-01-24T11:09:31;109.45;;;41.17;;
49340;SDS011;35209;51.050;13.678;2023-01-24T11:14:35;113.88;;;44.03;;
49340;SDS011;35209;51.050;13.678;2023-01-24T11:19:37;116.28;;;42.03;;
49340;SDS011;35209;51.050;13.678;2023-01-24T11:24:44;115.28;;;44.25;;
49340;SDS011;35209;51.050;13.678;2023-01-24T11:35:20;109.68;;;42.55;;
49340;SDS011;35209;51.050;13.678;2023-01-24T11:50:50;112.60;;;45.50;;
49340;SDS011;35209;51.050;13.678;2023-01-24T12:01:52;124.32;;;48.58;;
49340;SDS011;35209;51.050;13.678;2023-01-24T12:07:04;131.10;;;47.15;;
49340;SDS011;35209;51.050;13.678;2023-01-24T12:22:30;131.30;;;48.95;;
49340;SDS011;35209;51.050;13.678;2023-01-24T12:27:34;145.73;;;54.17;;
49340;SDS011;35209;51.050;13.678;2023-01-24T12:37:51;114.30;;;44.30;;
49340;SDS011;35209;51.050;13.678;2023-01-24T12:48:24;108.20;;;42.80;;
49340;SDS011;35209;51.050;13.678;2023-01-24T12:53:40;116.05;;;44.20;;
49340;SDS011;35209;51.050;13.678;2023-01-24T12:58:54;110.90;;;44.78;;
49340;SDS011;35209;51.050;13.678;2023-01-24T13:14:33;115.00;;;45.17;;
49340;SDS011;35209;51.050;13.678;2023-01-24T13:19:54;110.47;;;43.20;;
49340;SDS011;35209;51.050;13.678;2023-01-24T13:35:46;102.93;;;41.22;;
49340;SDS011;35209;51.050;13.678;2023-01-24T13:46:00;121.22;;;47.75;;
49340;SDS011;35209;51.050;13.678;2023-01-24T13:56:23;126.60;;;46.13;;
49340;SDS011;35209;51.050;13.678;2023-01-24T14:01:24;131.43;;;48.35;;
49340;SDS011;35209;51.050;13.678;2023-01-24T14:06:38;125.88;;;45.65;;
49340;SDS011;35209;51.050;13.678;2023-01-24T14:11:53;122.22;;;46.95;;
49340;SDS011;35209;51.050;13.678;2023-01-24T14:17:00;135.15;;;49.47;;
49340;SDS011;35209;51.050;13.678;2023-01-24T14:32:35;127.15;;;48.65;;
49340;SDS011;35209;51.050;13.678;2023-01-24T14:37:41;122.07;;;47.03;;
49340;SDS011;35209;51.050;13.678;2023-01-24T14:42:43;122.45;;;45.83;;
49340;SDS011;35209;51.050;13.678;2023-01-24T14:47:46;119.93;;;45.60;;
49340;SDS011;35209;51.050;13.678;2023-01-24T14:52:49;127.70;;;48.53;;
49340;SDS011;35209;51.050;13.678;2023-01-24T14:57:52;131.60;;;47.58;;
49340;SDS011;35209;51.050;13.678;2023-01-24T15:02:58;128.55;;;47.70;;
49340;SDS011;35209;51.050;13.678;2023-01-24T15:08:12;128.75;;;45.95;;
49340;SDS011;35209;51.050;13.678;2023-01-24T15:13:19;126.03;;;47.17;;
49340;SDS011;35209;51.050;13.678;2023-01-24T15:23:31;136.70;;;46.78;;
49340;SDS011;35209;51.050;13.678;2023-01-24T15:28:33;136.88;;;47.35;;
49340;SDS011;35209;51.050;13.678;2023-01-24T15:33:39;127.88;;;47.08;;
49340;SDS011;35209;51.050;13.678;2023-01-24T15:38:45;133.38;;;48.17;;
49340;SDS011;35209;51.050;13.678;2023-01-24T15:49:20;129.73;;;47.28;;
49340;SDS011;35209;51.050;13.678;2023-01-24T15:54:37;135.00;;;47.35;;
49340;SDS011;35209;51.050;13.678;2023-01-24T15:59:40;131.02;;;48.35;;
49340;SDS011;35209;51.050;13.678;2023-01-24T16:04:45;130.88;;;47.35;;
49340;SDS011;35209;51.050;13.678;2023-01-24T16:09:49;131.30;;;44.50;;
49340;SDS011;35209;51.050;13.678;2023-01-24T16:14:51;132.95;;;47.55;;
49340;SDS011;35209;51.050;13.678;2023-01-24T16:20:30;136.68;;;46.72;;
49340;SDS011;35209;51.050;13.678;2023-01-24T16:25:32;133.52;;;46.85;;
49340;SDS011;35209;51.050;13.678;2023-01-24T16:30:36;130.43;;;44.78;;
49340;SDS011;35209;51.050;13.678;2023-01-24T16:35:38;130.73;;;46.42;;
49340;SDS011;35209;51.050;13.678;2023-01-24T16:40:40;123.25;;;45.90;;
49340;SDS011;35209;51.050;13.678;2023-01-24T16:45:43;134.18;;;45.88;;
49340;SDS011;35209;51.050;13.678;2023-01-24T16:50:47;122.07;;;45.78;;
49340;SDS011;35209;51.050;13.678;2023-01-24T16:55:56;129.32;;;47.65;;
49340;SDS011;35209;51.050;13.678;2023-01-24T17:00:58;130.65;;;48.83;;
49340;SDS011;35209;51.050;13.678;2023-01-24T17:06:00;127.10;;;47.13;;
49340;SDS011;35209;51.050;13.678;2023-01-24T17:11:06;126.90;;;45.67;;
49340;SDS011;35209;51.050;13.678;2023-01-24T17:16:09;121.55;;;47.25;;
49340;SDS011;35209;51.050;13.678;2023-01-24T17:21:13;129.27;;;46.78;;
49340;SDS011;35209;51.050;13.678;2023-01-24T17:26:16;124.28;;;45.80;;
49340;SDS011;35209;51.050;13.678;2023-01-24T17:31:18;115.50;;;44.85;;
49340;SDS011;35209;51.050;13.678;2023-01-24T17:36:21;114.60;;;44.55;;
49340;SDS011;35209;51.050;13.678;2023-01-24T17:41:23;122.28;;;44.75;;
49340;SDS011;35209;51.050;13.678;2023-01-24T17:46:25;112.18;;;43.42;;
49340;SDS011;35209;51.050;13.678;2023-01-24T17:51:27;110.40;;;42.85;;
49340;SDS011;35209;51.050;13.678;2023-01-24T17:56:28;111.22;;;43.60;;
49340;SDS011;35209;51.050;13.678;2023-01-24T18:01:30;99.13;;;39.90;;
49340;SDS011;35209;51.050;13.678;2023-01-24T18:06:32;97.50;;;39.33;;
49340;SDS011;35209;51.050;13.678;2023-01-24T18:11:34;99.65;;;39.80;;
49340;SDS011;35209;51.050;13.678;2023-01-24T18:16:37;96.53;;;39.53;;
49340;SDS011;35209;51.050;13.678;2023-01-24T18:21:39;104.45;;;40.92;;
49340;SDS011;35209;51.050;13.678;2023-01-24T18:26:42;86.60;;;38.58;;
49340;SDS011;35209;51.050;13.678;2023-01-24T18:31:44;96.22;;;39.60;;
49340;SDS011;35209;51.050;13.678;2023-01-24T18:36:48;96.13;;;37.53;;
49340;SDS011;35209;51.050;13.678;2023-01-24T18:41:49;89.10;;;38.85;;
49340;SDS011;35209;51.050;13.678;2023-01-24T18:46:51;88.18;;;38.30;;
49340;SDS011;35209;51.050;13.678;2023-01-24T18:51:53;79.93;;;35.42;;
49340;SDS011;35209;51.050;13.678;2023-01-24T18:56:54;76.07;;;34.58;;
49340;SDS011;35209;51.050;13.678;2023-01-24T19:01:57;82.82;;;36.30;;
49340;SDS011;35209;51.050;13.678;2023-01-24T19:06:59;73.05;;;33.60;;
49340;SDS011;35209;51.050;13.678;2023-01-24T19:12:03;74.45;;;33.08;;
49340;SDS011;35209;51.050;13.678;2023-01-24T19:17:05;71.65;;;33.00;;
49340;SDS011;35209;51.050;13.678;2023-01-24T19:22:08;75.35;;;34.67;;
49340;SDS011;35209;51.050;13.678;2023-01-24T19:27:11;77.10;;;33.95;;
49340;SDS011;35209;51.050;13.678;2023-01-24T19:32:12;79.60;;;36.22;;
49340;SDS011;35209;51.050;13.678;2023-01-24T19:37:14;66.68;;;33.38;;
49340;SDS011;35209;51.050;13.678;2023-01-24T19:42:16;77.40;;;33.60;;
49340;SDS011;35209;51.050;13.678;2023-01-24T19:47:17;83.57;;;36.25;;
49340;SDS011;35209;51.050;13.678;2023-01-24T19:52:19;79.43;;;35.55;;
49340;SDS011;35209;51.050;13.678;2023-01-24T19:57:21;67.20;;;33.65;;
49340;SDS011;35209;51.050;13.678;2023-01-24T20:02:23;74.82;;;33.95;;
49340;SDS011;35209;51.050;13.678;2023-01-24T20:07:25;68.97;;;34.25;;
49340;SDS011;35209;51.050;13.678;2023-01-24T20:12:27;77.10;;;36.70;;
49340;SDS011;35209;51.050;13.678;2023-01-24T20:17:31;73.80;;;34.13;;
49340;SDS011;35209;51.050;13.678;2023-01-24T20:22:36;70.43;;;32.60;;
49340;SDS011;35209;51.050;13.678;2023-01-24T20:27:38;78.53;;;34.78;;
49340;SDS011;35209;51.050;13.678;2023-01-24T20:32:40;64.00;;;32.67;;
49340;SDS011;35209;51.050;13.678;2023-01-24T20:37:41;65.45;;;33.33;;
49340;SDS011;35209;51.050;13.678;2023-01-24T20:42:43;72.57;;;33.75;;
49340;SDS011;35209;51.050;13.678;2023-01-24T20:47:45;66.90;;;32.78;;
49340;SDS011;35209;51.050;13.678;2023-01-24T20:52:47;69.93;;;33.65;;
49340;SDS011;35209;51.050;13.678;2023-01-24T20:57:49;70.68;;;33.72;;
49340;SDS011;35209;51.050;13.678;2023-01-24T21:02:51;59.65;;;32.05;;
49340;SDS011;35209;51.050;13.678;2023-01-24T21:07:54;60.83;;;30.52;;
49340;SDS011;35209;51.050;13.678;2023-01-24T21:12:56;57.55;;;30.15;;
49340;SDS011;35209;51.050;13.678;2023-01-24T21:17:57;65.03;;;31.25;;
49340;SDS011;35209;51.050;13.678;2023-01-24T21:22:59;64.13;;;31.17;;
49340;SDS011;35209;51.050;13.678;2023-01-24T21:28:01;64.50;;;30.85;;
49340;SDS011;35209;51.050;13.678;2023-01-24T21:33:03;64.93;;;31.80;;
49340;SDS011;35209;51.050;13.678;2023-01-24T21:38:05;67.90;;;30.73;;
49340;SDS011;35209;51.050;13.678;2023-01-24T21:43:06;55.80;;;30.20;;
49340;SDS011;35209;51.050;13.678;2023-01-24T21:48:11;59.33;;;29.92;;
49340;SDS011;35209;51.050;13.678;2023-01-24T21:53:13;61.05;;;30.75;;
49340;SDS011;35209;51.050;13.678;2023-01-24T21:58:34;60.70;;;30.23;;
49340;SDS011;35209;51.050;13.678;2023-01-24T22:03:36;66.20;;;31.38;;
49340;SDS011;35209;51.050;13.678;2023-01-24T22:08:38;61.15;;;31.50;;
49340;SDS011;35209;51.050;13.678;2023-01-24T22:13:39;70.18;;;31.95;;
49340;SDS011;35209;51.050;13.678;2023-01-24T22:18:41;75.43;;;34.03;;
49340;SDS011;35209;51.050;13.678;2023-01-24T22:23:47;63.00;;;32.22;;
49340;SDS011;35209;51.050;13.678;2023-01-24T22:29:02;65.65;;;32.08;;
49340;SDS011;35209;51.050;13.678;2023-01-24T22:34:04;76.10;;;36.80;;
49340;SDS011;35209;51.050;13.678;2023-01-24T22:39:06;82.90;;;38.17;;
49340;SDS011;35209;51.050;13.678;2023-01-24T22:44:07;90.05;;;39.88;;
49340;SDS011;35209;51.050;13.678;2023-01-24T22:49:11;86.18;;;38.40;;
49340;SDS011;35209;51.050;13.678;2023-01-24T22:54:13;95.85;;;40.95;;
49340;SDS011;35209;51.050;13.678;2023-01-24T22:59:15;91.00;;;38.22;;
49340;SDS011;35209;51.050;13.678;2023-01-24T23:04:17;95.28;;;39.35;;
49340;SDS011;35209;51.050;13.678;2023-01-24T23:09:19;101.80;;;40.80;;
49340;SDS011;35209;51.050;13.678;2023-01-24T23:14:21;101.75;;;41.05;;
49340;SDS011;35209;51.050;13.678;2023-01-24T23:19:42;96.05;;;40.78;;
49340;SDS011;35209;51.050;13.678;2023-01-24T23:25:05;92.15;;;39.15;;
49340;SDS011;35209;51.050;13.678;2023-01-24T23:35:54;78.67;;;36.53;;
49340;SDS011;35209;51.050;13.678;2023-01-24T23:40:56;93.40;;;39.75;;
49340;SDS011;35209;51.050;13.678;2023-01-24T23:45:58;96.10;;;42.28;;
49340;SDS011;35209;51.050;13.678;2023-01-24T23:51:00;113.13;;;44.97;;
49340;SDS011;35209;51.050;13.678;2023-01-24T23:56:05;110.15;;;43.50;;
